| time (UTC) | temp C | wind direction | speed KPH | gust KPH | rain 1hr cm | rain 24hr cm | rain mn cm | humidity % | barometer mb |
| 20260503201559 | 24 | 59 | 4.8 | 14.5 | 0.00 | 0.00 | 0.00 | 34 | 1016.1 |
| 20260503201100 | 24 | 25 | 3.2 | 16.1 | 0.00 | 0.00 | 0.00 | 36 | 1016.2 |
| 20260503200601 | 24 | 276 | 3.2 | 6.4 | 0.00 | 0.00 | 0.00 | 35 | 1016.2 |
| 20260503200105 | 24 | 111 | 1.6 | 9.7 | 0.00 | 0.00 | 0.00 | 33 | 1016.3 |
| 20260503200001 | 24 | 110 | 3.2 | 9.7 | 0.00 | 0.00 | 0.00 | 33 | 1016.3 |
| 20260503195558 | 24 | 187 | 4.8 | 9.7 | 0.00 | 0.00 | 0.00 | 33 | 1016.4 |
| 20260503195100 | 24 | 17 | 3.2 | 8.0 | 0.00 | 0.00 | 0.00 | 36 | 1016.4 |
| 20260503194559 | 24 | 18 | 1.6 | 12.9 | 0.00 | 0.00 | 0.00 | 36 | 1016.6 |
| 20260503194059 | 23 | 43 | 1.6 | 11.3 | 0.00 | 0.00 | 0.00 | 35 | 1016.6 |
| 20260503193559 | 23 | 112 | 3.2 | 12.9 | 0.00 | 0.00 | 0.00 | 33 | 1016.6 |
| 20260503193059 | 23 | 244 | 4.8 | 12.9 | 0.00 | 0.00 | 0.00 | 32 | 1016.8 |
| 20260503192602 | 23 | 282 | 3.2 | 12.9 | 0.00 | 0.00 | 0.00 | 35 | 1016.9 |
| 20260503192058 | 23 | 242 | 3.2 | 8.0 | 0.00 | 0.00 | 0.00 | 34 | 1017.0 |
| 20260503191559 | 23 | 192 | 3.2 | 12.9 | 0.00 | 0.00 | 0.00 | 34 | 1017.1 |
| 20260503191059 | 23 | 196 | 6.4 | 19.3 | 0.00 | 0.00 | 0.00 | 35 | 1017.2 |
| 20260503190601 | 23 | 182 | 4.8 | 19.3 | 0.00 | 0.00 | 0.00 | 34 | 1017.3 |
| 20260503190109 | 23 | 126 | 4.8 | 12.9 | 0.00 | 0.00 | 0.00 | 33 | 1017.5 |
| 20260503190004 | 23 | 127 | 4.8 | 12.9 | 0.00 | 0.00 | 0.00 | 33 | 1017.5 |
| 20260503185558 | 23 | 217 | 4.8 | 11.3 | 0.00 | 0.00 | 0.00 | 33 | 1017.6 |
| 20260503185058 | 22 | 165 | 4.8 | 17.7 | 0.00 | 0.00 | 0.00 | 34 | 1017.7 |
| 20260503184605 | 22 | 263 | 9.7 | 17.7 | 0.00 | 0.00 | 0.00 | 35 | 1017.7 |
| 20260503184102 | 22 | 192 | 4.8 | 14.5 | 0.00 | 0.00 | 0.00 | 34 | 1017.9 |
| 20260503183559 | 23 | 241 | 8.0 | 14.5 | 0.00 | 0.00 | 0.00 | 33 | 1017.9 |
| 20260503183103 | 23 | 16 | 4.8 | 9.7 | 0.00 | 0.00 | 0.00 | 35 | 1017.9 |
| 20260503182558 | 22 | 355 | 1.6 | 11.3 | 0.00 | 0.00 | 0.00 | 37 | 1017.9 |
| 20260503182058 | 22 | 279 | 4.8 | 11.3 | 0.00 | 0.00 | 0.00 | 36 | 1018.1 |
| 20260503181605 | 22 | 259 | 3.2 | 12.9 | 0.00 | 0.00 | 0.00 | 37 | 1018.2 |
| 20260503181059 | 22 | 233 | 3.2 | 12.9 | 0.00 | 0.00 | 0.00 | 35 | 1018.2 |
| 20260503180559 | 22 | 286 | 1.6 | 8.0 | 0.00 | 0.00 | 0.00 | 37 | 1018.3 |
| 20260503180059 | 22 | 296 | 1.6 | 14.5 | 0.00 | 0.00 | 0.00 | 35 | 1018.2 |
| 20260503180000 | 22 | 227 | 3.2 | 14.5 | 0.00 | 0.00 | 0.00 | 35 | 1018.3 |
| 20260503175558 | 22 | 223 | 6.4 | 14.5 | 0.00 | 0.00 | 0.00 | 35 | 1018.4 |
| 20260503175058 | 22 | 190 | 1.6 | 14.5 | 0.00 | 0.00 | 0.00 | 36 | 1018.3 |
| 20260503174603 | 22 | 242 | 6.4 | 14.5 | 0.00 | 0.00 | 0.00 | 36 | 1018.3 |
| 20260503174059 | 22 | 25 | 1.6 | 9.7 | 0.00 | 0.00 | 0.00 | 38 | 1018.3 |
| 20260503173601 | 21 | 340 | 4.8 | 14.5 | 0.00 | 0.00 | 0.00 | 38 | 1018.4 |
| 20260503173105 | 22 | 211 | 4.8 | 14.5 | 0.00 | 0.00 | 0.00 | 36 | 1018.4 |
| 20260503172558 | 22 | 182 | 6.4 | 14.5 | 0.00 | 0.00 | 0.00 | 34 | 1018.4 |
| 20260503172058 | 22 | 182 | 4.8 | 14.5 | 0.00 | 0.00 | 0.00 | 37 | 1018.6 |
| 20260503171604 | 22 | 256 | 6.4 | 12.9 | 0.00 | 0.00 | 0.00 | 38 | 1018.7 |
| 20260503171058 | 22 | 86 | 1.6 | 8.0 | 0.00 | 0.00 | 0.00 | 40 | 1018.7 |
| 20260503170559 | 21 | 232 | 1.6 | 8.0 | 0.00 | 0.00 | 0.00 | 39 | 1018.8 |
| 20260503150558 | 19 | 130 | 3.2 | 14.5 | 0.00 | 0.03 | 0.00 | 44 | 1019.9 |
| 20260503131058 | 11 | 16 | 1.6 | 6.4 | 0.00 | 0.20 | 0.00 | 95 | 1019.4 |
| 20260503130558 | 11 | 84 | 1.6 | 6.4 | 0.00 | 0.20 | 0.00 | 95 | 1019.3 |
| 20260503110558 | 6 | 28 | 0.0 | 0.0 | 0.00 | 0.71 | 0.00 | 94 | 1018.4 |
| 20260503100110 | 6 | 28 | 0.0 | 0.0 | 0.00 | 0.84 | 0.00 | 94 | 1017.4 |
| 20260503081602 | 7 | 28 | 0.0 | 0.0 | 0.00 | 1.45 | 0.00 | 93 | 1016.3 |
| 20260503081058 | 7 | 28 | 0.0 | 0.0 | 0.00 | 1.45 | 0.00 | 93 | 1016.2 |
| 20260503080600 | 7 | 28 | 0.0 | 0.0 | 0.00 | 1.45 | 0.00 | 93 | 1016.2 |
| 20260503072558 | 8 | 28 | 0.0 | 0.0 | 0.00 | 1.57 | 0.00 | 92 | 1016.0 |
| 20260503072058 | 8 | 28 | 0.0 | 0.0 | 0.00 | 1.57 | 0.00 | 93 | 1016.0 |
| 20260503071601 | 8 | 28 | 0.0 | 1.6 | 0.00 | 1.57 | 0.00 | 92 | 1016.0 |
| 20260503071059 | 8 | 28 | 0.0 | 1.6 | 0.00 | 1.57 | 0.00 | 92 | 1015.9 |
| 20260503070602 | 8 | 28 | 0.0 | 0.0 | 0.00 | 1.57 | 0.00 | 92 | 1015.9 |
| 20260503060118 | 10 | 28 | 0.0 | 1.6 | 0.00 | 1.57 | 0.00 | 91 | 1015.5 |
| 20260503055101 | 10 | 28 | 0.0 | 1.6 | 0.00 | 1.57 | 0.00 | 91 | 1015.5 |
| 20260503054620 | 10 | 28 | 0.0 | 0.0 | 0.00 | 1.57 | 0.00 | 91 | 1015.5 |
| 20260503054059 | 10 | 28 | 0.0 | 1.6 | 0.00 | 1.57 | 0.00 | 91 | 1015.5 |
| 20260503053559 | 10 | 28 | 0.0 | 1.6 | 0.00 | 1.57 | 0.00 | 91 | 1015.5 |
| 20260503053058 | 10 | 28 | 0.0 | 1.6 | 0.00 | 1.57 | 0.00 | 91 | 1015.4 |
| 20260503052558 | 10 | 28 | 0.0 | 1.6 | 0.00 | 1.57 | 0.00 | 91 | 1015.4 |
| 20260503052058 | 10 | 28 | 0.0 | 0.0 | 0.00 | 1.57 | 0.00 | 91 | 1015.4 |
| 20260503051558 | 11 | 28 | 0.0 | 0.0 | 0.00 | 1.57 | 0.00 | 91 | 1015.4 |
| 20260503051058 | 11 | 28 | 0.0 | 1.6 | 0.00 | 1.57 | 0.00 | 91 | 1015.3 |
| 20260503050558 | 11 | 28 | 0.0 | 1.6 | 0.00 | 1.57 | 0.00 | 91 | 1015.3 |
| 20260503050058 | 11 | 28 | 0.0 | 3.2 | 0.00 | 1.57 | 0.00 | 91 | 1015.2 |
| 20260503050002 | 11 | 28 | 0.0 | 3.2 | 0.00 | 1.57 | 0.00 | 91 | 1015.2 |
| 20260503045600 | 11 | 28 | 1.6 | 3.2 | 0.00 | 1.57 | 0.00 | 91 | 1015.2 |
| 20260503045100 | 11 | 28 | 0.0 | 1.6 | 0.00 | 1.57 | 0.00 | 91 | 1015.1 |
| 20260503044600 | 11 | 28 | 0.0 | 1.6 | 0.00 | 1.57 | 0.00 | 90 | 1015.1 |
| 20260503044100 | 11 | 28 | 0.0 | 1.6 | 0.00 | 1.57 | 0.00 | 90 | 1015.0 |
| 20260503043600 | 11 | 28 | 0.0 | 3.2 | 0.00 | 1.57 | 0.00 | 90 | 1014.9 |
| 20260503043101 | 12 | 28 | 0.0 | 3.2 | 0.00 | 1.57 | 0.00 | 90 | 1014.7 |
| 20260503042601 | 12 | 28 | 0.0 | 1.6 | 0.00 | 1.57 | 0.00 | 90 | 1014.6 |
| 20260503042100 | 12 | 28 | 0.0 | 1.6 | 0.00 | 1.57 | 0.00 | 90 | 1014.7 |
| 20260503041600 | 12 | 28 | 0.0 | 0.0 | 0.00 | 1.57 | 0.00 | 90 | 1014.7 |
| 20260503041103 | 12 | 28 | 0.0 | 1.6 | 0.00 | 1.57 | 0.00 | 90 | 1014.8 |
| 20260503040600 | 12 | 28 | 0.0 | 1.6 | 0.00 | 1.57 | 0.00 | 90 | 1014.8 |
| 20260503040106 | 12 | 28 | 0.0 | 3.2 | 0.00 | 1.57 | 0.00 | 90 | 1015.0 |
| 20260503040004 | 12 | 28 | 0.0 | 3.2 | 0.00 | 1.57 | 0.00 | 90 | 1015.0 |
| 20260503035600 | 12 | 28 | 0.0 | 4.8 | 0.00 | 1.57 | 1.57 | 90 | 1015.1 |
| 20260503035100 | 12 | 28 | 1.6 | 4.8 | 0.00 | 1.57 | 1.57 | 90 | 1015.0 |
| 20260503034614 | 12 | 103 | 0.0 | 3.2 | 0.00 | 1.57 | 1.57 | 90 | 1014.7 |
| 20260503034100 | 12 | 103 | 0.0 | 3.2 | 0.00 | 1.57 | 1.57 | 90 | 1014.6 |
| 20260503033559 | 12 | 103 | 0.0 | 4.8 | 0.00 | 1.57 | 1.57 | 90 | 1014.7 |
| 20260503033109 | 11 | 103 | 1.6 | 4.8 | 0.00 | 1.57 | 1.57 | 90 | 1014.9 |
| 20260503032601 | 11 | 103 | 0.0 | 3.2 | 0.00 | 1.57 | 1.57 | 90 | 1014.8 |
| 20260503032101 | 11 | 103 | 0.0 | 3.2 | 0.00 | 1.57 | 1.57 | 90 | 1014.8 |
| 20260503031600 | 11 | 103 | 1.6 | 3.2 | 0.00 | 1.57 | 1.57 | 90 | 1014.8 |
| 20260503031100 | 11 | 103 | 0.0 | 0.0 | 0.00 | 1.57 | 1.57 | 90 | 1014.9 |
| 20260503030559 | 11 | 103 | 0.0 | 1.6 | 0.00 | 1.57 | 1.57 | 90 | 1014.9 |
| 20260503030100 | 12 | 103 | 0.0 | 1.6 | 0.00 | 1.57 | 1.57 | 90 | 1014.8 |
| 20260503030002 | 12 | 103 | 0.0 | 1.6 | 0.00 | 1.57 | 1.57 | 90 | 1014.8 |
| 20260503025600 | 12 | 103 | 0.0 | 3.2 | 0.00 | 1.57 | 1.57 | 90 | 1014.8 |
| 20260503025100 | 12 | 103 | 0.0 | 3.2 | 0.00 | 1.57 | 1.57 | 90 | 1014.8 |
| 20260503024600 | 12 | 103 | 0.0 | 1.6 | 0.00 | 1.57 | 1.57 | 90 | 1014.6 |
| 20260503024101 | 12 | 103 | 0.0 | 1.6 | 0.00 | 1.57 | 1.57 | 90 | 1014.5 |
| 20260503023559 | 12 | 103 | 0.0 | 3.2 | 0.00 | 1.57 | 1.57 | 90 | 1014.3 |
| 20260503023110 | 12 | 103 | 0.0 | 3.2 | 0.00 | 1.57 | 1.57 | 90 | 1014.3 |
| 20260503022600 | 12 | 103 | 0.0 | 3.2 | 0.00 | 1.57 | 1.57 | 90 | 1014.1 |
| 20260503022100 | 12 | 103 | 0.0 | 1.6 | 0.00 | 1.57 | 1.57 | 90 | 1014.0 |
| 20260503021600 | 12 | 103 | 0.0 | 0.0 | 0.00 | 1.57 | 1.57 | 89 | 1013.9 |
| 20260503021100 | 12 | 103 | 0.0 | 0.0 | 0.00 | 1.57 | 1.57 | 89 | 1013.7 |
| 20260503020600 | 12 | 103 | 0.0 | 0.0 | 0.00 | 1.57 | 1.57 | 89 | 1013.7 |
| 20260503020100 | 12 | 103 | 0.0 | 0.0 | 0.00 | 1.57 | 1.57 | 89 | 1013.6 |
| 20260503020003 | 12 | 103 | 0.0 | 0.0 | 0.00 | 1.57 | 1.57 | 89 | 1013.6 |
| 20260503015559 | 12 | 103 | 0.0 | 0.0 | 0.00 | 1.57 | 1.57 | 89 | 1013.5 |
| 20260503015059 | 12 | 103 | 0.0 | 1.6 | 0.00 | 1.57 | 1.57 | 88 | 1013.5 |
| 20260503014603 | 12 | 103 | 0.0 | 1.6 | 0.00 | 1.57 | 1.57 | 88 | 1013.4 |
| 20260503014100 | 12 | 103 | 0.0 | 0.0 | 0.00 | 1.57 | 1.57 | 88 | 1013.4 |
| 20260503013600 | 12 | 103 | 0.0 | 0.0 | 0.00 | 1.57 | 1.57 | 88 | 1013.3 |
| 20260503013100 | 12 | 103 | 0.0 | 0.0 | 0.00 | 1.57 | 1.57 | 88 | 1013.2 |
| 20260503012559 | 12 | 103 | 0.0 | 0.0 | 0.00 | 1.57 | 1.57 | 87 | 1013.0 |
| 20260503012100 | 12 | 103 | 0.0 | 0.0 | 0.00 | 1.57 | 1.57 | 87 | 1013.0 |
| 20260503011608 | 12 | 103 | 0.0 | 0.0 | 0.00 | 1.57 | 1.57 | 87 | 1012.8 |
| 20260503011059 | 12 | 103 | 0.0 | 0.0 | 0.00 | 1.57 | 1.57 | 87 | 1012.9 |
| 20260503010600 | 12 | 103 | 0.0 | 0.0 | 0.00 | 1.57 | 1.57 | 87 | 1012.8 |
| 20260503010100 | 12 | 103 | 0.0 | 0.0 | 0.00 | 1.57 | 1.57 | 86 | 1012.8 |
| 20260503010002 | 12 | 103 | 0.0 | 1.6 | 0.00 | 1.57 | 1.57 | 86 | 1012.8 |
| 20260503005600 | 12 | 103 | 0.0 | 1.6 | 0.00 | 1.57 | 1.57 | 86 | 1012.7 |
| 20260503005100 | 12 | 103 | 0.0 | 0.0 | 0.00 | 1.57 | 1.57 | 85 | 1012.7 |
| 20260503004601 | 12 | 103 | 0.0 | 1.6 | 0.00 | 1.57 | 1.57 | 85 | 1012.7 |
| 20260503004100 | 12 | 103 | 0.0 | 1.6 | 0.00 | 1.57 | 1.57 | 84 | 1012.6 |
| 20260503003600 | 12 | 103 | 0.0 | 1.6 | 0.00 | 1.57 | 1.57 | 84 | 1012.5 |
| 20260503003059 | 12 | 103 | 0.0 | 1.6 | 0.00 | 1.57 | 1.57 | 83 | 1012.4 |
| 20260503002601 | 12 | 103 | 0.0 | 1.6 | 0.00 | 1.57 | 1.57 | 82 | 1012.4 |
| 20260503002100 | 13 | 103 | 0.0 | 1.6 | 0.00 | 1.57 | 1.57 | 81 | 1012.3 |
| 20260503001600 | 13 | 103 | 0.0 | 0.0 | 0.00 | 1.57 | 1.57 | 81 | 1012.2 |
| 20260503001103 | 13 | 103 | 0.0 | 0.0 | 0.00 | 1.57 | 1.57 | 80 | 1012.1 |
| 20260503000559 | 13 | 103 | 0.0 | 0.0 | 0.00 | 1.57 | 1.57 | 79 | 1012.1 |
| 20260503000059 | 14 | 103 | 0.0 | 0.0 | 0.00 | 1.57 | 1.57 | 78 | 1012.0 |
| 20260503000002 | 14 | 103 | 0.0 | 1.6 | 0.00 | 1.57 | 1.57 | 78 | 1012.0 |
| 20260502235559 | 14 | 103 | 0.0 | 1.6 | 0.00 | 1.57 | 1.57 | 77 | 1012.0 |
| 20260502235101 | 15 | 103 | 0.0 | 1.6 | 0.00 | 1.57 | 1.57 | 75 | 1011.9 |
| 20260502234605 | 15 | 103 | 0.0 | 0.0 | 0.00 | 1.57 | 1.57 | 74 | 1011.9 |
| 20260502234100 | 15 | 103 | 0.0 | 3.2 | 0.00 | 1.57 | 1.57 | 73 | 1011.8 |
| 20260502233600 | 15 | 103 | 0.0 | 3.2 | 0.00 | 1.57 | 1.57 | 70 | 1011.8 |
| 20260502233100 | 16 | 103 | 0.0 | 3.2 | 0.00 | 1.57 | 1.57 | 70 | 1011.5 |
| 20260502232601 | 16 | 103 | 0.0 | 3.2 | 0.00 | 1.57 | 1.57 | 68 | 1011.4 |
| 20260502232100 | 16 | 103 | 0.0 | 3.2 | 0.00 | 1.57 | 1.57 | 67 | 1011.4 |
| 20260502231611 | 16 | 103 | 0.0 | 3.2 | 0.00 | 1.57 | 1.57 | 68 | 1011.4 |
| 20260502231100 | 16 | 103 | 0.0 | 4.8 | 0.00 | 1.57 | 1.57 | 67 | 1011.3 |
| 20260502230603 | 16 | 103 | 0.0 | 6.4 | 0.00 | 1.57 | 1.57 | 68 | 1011.3 |
| 20260502230100 | 16 | 103 | 3.2 | 6.4 | 0.00 | 1.57 | 1.57 | 68 | 1011.3 |
| 20260502230003 | 16 | 85 | 1.6 | 4.8 | 0.00 | 1.57 | 1.57 | 68 | 1011.3 |
| 20260502225559 | 15 | 85 | 1.6 | 4.8 | 0.00 | 1.57 | 1.57 | 68 | 1011.4 |
| 20260502225059 | 15 | 85 | 0.0 | 4.8 | 0.00 | 1.57 | 1.57 | 69 | 1011.6 |
| 20260502224601 | 15 | 85 | 1.6 | 4.8 | 0.00 | 1.57 | 1.57 | 70 | 1011.6 |
| 20260502224100 | 15 | 34 | 0.0 | 3.2 | 0.00 | 1.57 | 1.57 | 69 | 1011.7 |
| 20260502223600 | 15 | 34 | 1.6 | 6.4 | 0.00 | 1.57 | 1.57 | 69 | 1011.7 |
| 20260502223106 | 15 | 34 | 0.0 | 6.4 | 0.00 | 1.57 | 1.57 | 69 | 1011.5 |
| 20260502222600 | 15 | 44 | 1.6 | 8.0 | 0.00 | 1.57 | 1.57 | 68 | 1011.4 |
| 20260502222102 | 15 | 67 | 1.6 | 9.7 | 0.00 | 1.57 | 1.57 | 68 | 1011.4 |
| 20260502221600 | 15 | 78 | 1.6 | 6.4 | 0.00 | 1.57 | 1.57 | 70 | 1011.4 |
| 20260502221059 | 15 | 42 | 1.6 | 4.8 | 0.00 | 1.57 | 1.57 | 68 | 1011.3 |
| 20260502220600 | 15 | 86 | 1.6 | 6.4 | 0.00 | 1.57 | 1.57 | 67 | 1011.3 |
| 20260502220100 | 15 | 30 | 3.2 | 9.7 | 0.00 | 1.57 | 1.57 | 68 | 1011.3 |
| 20260502220002 | 15 | 30 | 3.2 | 9.7 | 0.00 | 1.57 | 1.57 | 68 | 1011.3 |
| 20260502215600 | 15 | 24 | 4.8 | 9.7 | 0.00 | 1.57 | 1.57 | 69 | 1011.3 |
| 20260502215100 | 15 | 22 | 1.6 | 9.7 | 0.00 | 1.57 | 1.57 | 69 | 1011.3 |
| 20260502214559 | 15 | 33 | 3.2 | 9.7 | 0.00 | 1.57 | 1.57 | 69 | 1011.3 |
| 20260502214059 | 15 | 52 | 0.0 | 6.4 | 0.00 | 1.57 | 1.57 | 69 | 1011.3 |
| 20260502213559 | 15 | 51 | 0.0 | 6.4 | 0.00 | 1.57 | 1.57 | 69 | 1011.2 |
| 20260502213109 | 15 | 22 | 0.0 | 4.8 | 0.00 | 1.57 | 1.57 | 68 | 1011.1 |
| 20260502212600 | 15 | 123 | 0.0 | 8.0 | 0.00 | 1.57 | 1.57 | 68 | 1011.0 |
| 20260502212100 | 15 | 11 | 3.2 | 8.0 | 0.00 | 1.57 | 1.57 | 67 | 1011.0 |
| 20260502211600 | 15 | 107 | 1.6 | 8.0 | 0.00 | 1.57 | 1.57 | 67 | 1011.0 |
| 20260502211102 | 15 | 41 | 3.2 | 8.0 | 0.00 | 1.57 | 1.57 | 67 | 1011.0 |
| 20260502210600 | 15 | 79 | 1.6 | 6.4 | 0.00 | 1.57 | 1.57 | 67 | 1011.1 |
| 20260502210100 | 15 | 19 | 3.2 | 8.0 | 0.00 | 1.57 | 1.57 | 67 | 1011.1 |
| 20260502210009 | 15 | 355 | 3.2 | 8.0 | 0.00 | 1.57 | 1.57 | 68 | 1011.1 |
| 20260502205559 | 15 | 22 | 4.8 | 12.9 | 0.00 | 1.57 | 1.57 | 67 | 1011.2 |
| 20260502205059 | 15 | 20 | 1.6 | 12.9 | 0.00 | 1.57 | 1.57 | 68 | 1011.3 |
| 20260502205005 | 15 | 20 | 1.6 | 12.9 | 0.00 | 1.57 | 1.57 | 67 | 1011.3 |
| 20260502204618 | 15 | 21 | 3.2 | 9.7 | 0.00 | 1.57 | 1.57 | 68 | 1011.3 |
| 20260502204103 | 15 | 63 | 4.8 | 9.7 | 0.00 | 1.57 | 1.57 | 66 | 1011.3 |
| 20260502203600 | 15 | 33 | 4.8 | 9.7 | 0.00 | 1.57 | 1.57 | 68 | 1011.2 |
| 20260502203101 | 15 | 119 | 1.6 | 14.5 | 0.00 | 1.57 | 1.57 | 69 | 1011.3 |
| 20260502202601 | 15 | 82 | 4.8 | 16.1 | 0.00 | 1.57 | 1.57 | 68 | 1011.2 |
| 20260502202059 | 15 | 55 | 6.4 | 16.1 | 0.00 | 1.57 | 1.57 | 68 | 1011.3 |